Time;durP1;ratioP1;P1;durP2;ratioP2;P2;SDS_P1;SDS_P2;PMS_P1;PMS_P2;Temp;Humidity;BMP_temperature;BMP_pressure;BME280_temperature;BME280_humidity;BME280_pressure;Samples;Min_cycle;Max_cycle;Signal;HPM_P1;HPM_P2
2022/01/11 00:02:17;;;;;;;25.10;15.75;;;1.20;99.90;;;;;;4997556;28;20417;-74
2022/01/11 00:04:43;;;;;;;27.88;16.15;;;;;;;;;;4997253;28;20459;-73
2022/01/11 00:07:13;;;;;;;25.35;14.52;;;;;;;;;;4997234;28;20600;-73
2022/01/11 00:09:42;;;;;;;26.55;16.17;;;;;;;;;;4997136;28;20041;-73
2022/01/11 00:12:10;;;;;;;25.77;15.18;;;;;;;;;;4997068;28;20042;-73
2022/01/11 00:14:36;;;;;;;31.73;17.55;;;;;;;;;;4997238;28;20042;-73
2022/01/11 00:17:02;;;;;;;24.95;16.02;;;;;;;;;;5013358;28;20033;-73
2022/01/11 00:19:29;;;;;;;29.75;16.27;;;;;;;;;;4995679;28;20046;-73
2022/01/11 00:21:55;;;;;;;32.63;16.55;;;;;;;;;;4996946;28;20048;-73
2022/01/11 00:24:32;;;;;;;25.25;16.45;;;;;;;;;;4997042;28;20096;-73
2022/01/11 00:26:58;;;;;;;26.45;15.27;;;;;;;;;;4998217;28;20061;-73
2022/01/11 00:29:24;;;;;;;24.92;16.67;;;;;;;;;;4996463;28;20520;-73
2022/01/11 00:31:50;;;;;;;34.78;16.27;;;;;;;;;;4996805;28;20042;-73
2022/01/11 00:34:19;;;;;;;25.75;14.55;;;;;;;;;;4996824;28;20077;-73
2022/01/11 00:36:45;;;;;;;27.40;16.02;;;;;;;;;;4996753;28;20513;-73
2022/01/11 00:39:12;;;;;;;25.98;15.30;;;;;;;;;;4996367;28;20568;-73
2022/01/11 00:41:39;;;;;;;25.30;15.00;;;;;;;;;;4996560;28;20042;-73
2022/01/11 00:44:05;;;;;;;24.70;15.98;;;1.30;99.90;;;;;;4996568;28;20128;-73
2022/01/11 00:46:31;;;;;;;23.98;15.00;;;1.30;99.90;;;;;;4996490;28;20042;-73
2022/01/11 00:48:57;;;;;;;24.70;14.32;;;;;;;;;;4996269;28;20052;-72
2022/01/11 00:51:23;;;;;;;26.42;15.60;;;;;;;;;;4996587;28;20042;-73
2022/01/11 00:53:49;;;;;;;26.08;15.55;;;;;;;;;;4996272;28;20049;-73
2022/01/11 00:56:15;;;;;;;22.83;14.48;;;;;;;;;;4996217;28;20037;-73
2022/01/11 00:58:41;;;;;;;25.77;14.88;;;;;;;;;;4996163;28;20049;-73
2022/01/11 01:01:08;;;;;;;24.98;14.65;;;;;;;;;;4996106;28;20046;-73
2022/01/11 01:03:34;;;;;;;26.17;15.15;;;;;;;;;;4996214;28;20049;-73
2022/01/11 01:06:00;;;;;;;25.52;15.10;;;;;;;;;;4996302;28;20037;-73
2022/01/11 01:08:26;;;;;;;26.90;15.38;;;;;;;;;;4996013;28;20049;-72
2022/01/11 01:10:53;;;;;;;28.15;14.30;;;;;;;;;;4995771;28;20501;-73
2022/01/11 01:13:21;;;;;;;24.35;14.40;;;;;;;;;;4996077;28;20046;-73
2022/01/11 01:15:48;;;;;;;26.23;14.82;;;1.20;99.90;;;;;;4995995;28;20042;-73
2022/01/11 01:18:20;;;;;;;23.35;14.27;;;1.20;99.90;;;;;;4996175;28;20401;-73
2022/01/11 01:20:47;;;;;;;22.75;14.23;;;;;;;;;;4995687;28;20046;-74
2022/01/11 01:23:13;;;;;;;26.27;14.57;;;;;;;;;;4995793;28;20049;-73
2022/01/11 01:25:40;;;;;;;28.20;15.27;;;1.40;99.90;;;;;;4995816;28;20046;-73
2022/01/11 01:28:07;;;;;;;25.63;15.20;;;;;;;;;;4995690;28;20198;-73
2022/01/11 01:30:33;;;;;;;26.90;14.57;;;;;;;;;;4995448;28;20077;-73
2022/01/11 01:32:59;;;;;;;33.40;16.50;;;;;;;;;;4995579;28;20041;-73
2022/01/11 01:35:30;;;;;;;28.90;15.82;;;;;;;;;;4995537;28;20037;-73
2022/01/11 01:37:56;;;;;;;26.45;14.40;;;;;;;;;;4995666;28;20828;-73
2022/01/11 01:40:22;;;;;;;32.05;15.25;;;1.30;99.90;;;;;;4995193;28;20038;-72
2022/01/11 01:42:49;;;;;;;27.80;14.98;;;;;;;;;;4993493;28;20133;-73
2022/01/11 01:45:16;;;;;;;31.10;16.98;;;;;;;;;;4993676;28;20052;-73
2022/01/11 01:47:42;;;;;;;30.17;16.80;;;;;;;;;;4995580;28;20176;-73
2022/01/11 01:50:09;;;;;;;25.92;15.23;;;1.50;99.90;;;;;;4995201;28;20052;-74
2022/01/11 01:52:35;;;;;;;24.40;15.18;;;1.30;99.90;;;;;;4978942;28;20088;-73
2022/01/11 01:55:01;;;;;;;30.90;15.93;;;;;;;;;;4995305;28;20045;-73
2022/01/11 01:57:27;;;;;;;25.02;15.98;;;1.30;99.90;;;;;;4995533;28;20045;-73
2022/01/11 01:59:53;;;;;;;31.92;16.35;;;;;;;;;;4978741;28;20081;-72
2022/01/11 02:02:19;;;;;;;31.85;15.75;;;;;;;;;;4995192;28;20053;-75
2022/01/11 02:04:48;;;;;;;28.65;15.48;;;;;;;;;;4995806;28;20087;-75
2022/01/11 02:07:14;;;;;;;29.25;16.85;;;;;;;;;;4995393;28;20052;-75
2022/01/11 02:09:40;;;;;;;24.17;15.73;;;1.40;99.90;;;;;;4994893;28;20132;-75
2022/01/11 02:12:06;;;;;;;27.40;16.27;;;1.40;99.90;;;;;;4978884;28;20168;-75
2022/01/11 02:14:32;;;;;;;27.85;16.52;;;1.40;99.90;;;;;;4978953;28;20041;-76
2022/01/11 02:17:00;;;;;;;30.88;16.15;;;1.30;99.90;;;;;;4979384;28;20045;-75
2022/01/11 02:19:26;;;;;;;29.33;16.02;;;;;;;;;;4978436;28;20061;-75
2022/01/11 02:21:52;;;;;;;26.10;14.93;;;;;;;;;;4994913;28;20121;-75
2022/01/11 02:24:19;;;;;;;28.08;15.48;;;;;;;;;;4994820;28;20050;-76
2022/01/11 02:26:45;;;;;;;32.25;17.33;;;;;;;;;;4995106;28;20046;-76
2022/01/11 02:29:11;;;;;;;29.63;16.27;;;;;;;;;;4994344;28;20045;-75
2022/01/11 02:31:38;;;;;;;32.88;17.23;;;1.30;99.90;;;;;;4994922;28;20055;-75
2022/01/11 02:34:04;;;;;;;30.88;15.68;;;;;;;;;;4994410;28;20473;-76
2022/01/11 02:36:32;;;;;;;25.42;15.63;;;1.60;99.90;;;;;;4994799;28;20112;-76
2022/01/11 02:38:59;;;;;;;30.45;16.98;;;;;;;;;;4994308;28;20073;-75
2022/01/11 02:41:27;;;;;;;32.55;16.95;;;;;;;;;;4993857;28;20042;-76
2022/01/11 02:43:53;;;;;;;37.97;17.70;;;;;;;;;;4994701;28;20133;-77
2022/01/11 02:46:21;;;;;;;31.65;16.67;;;;;;;;;;4994381;28;20587;-75
2022/01/11 02:48:47;;;;;;;33.72;16.67;;;;;;;;;;4994721;28;20416;-75
2022/01/11 02:51:13;;;;;;;32.55;17.27;;;;;;;;;;4994256;28;20513;-75
2022/01/11 02:53:45;;;;;;;28.38;15.45;;;1.50;99.90;;;;;;4994302;28;20089;-75
2022/01/11 02:56:12;;;;;;;34.75;16.42;;;;;;;;;;4978126;28;20034;-75
2022/01/11 02:58:38;;;;;;;31.90;18.27;;;;;;;;;;4994253;28;20038;-75
2022/01/11 03:01:05;;;;;;;33.75;17.08;;;1.20;99.90;;;;;;4993915;28;20034;-75
2022/01/11 03:03:31;;;;;;;32.47;17.25;;;;;;;;;;4978001;28;20038;-76
2022/01/11 03:06:02;;;;;;;37.72;17.75;;;1.30;99.90;;;;;;4994116;28;20175;-75
2022/01/11 03:08:30;;;;;;;35.35;19.25;;;;;;;;;;4977995;28;20049;-73
2022/01/11 03:10:56;;;;;;;43.53;18.98;;;;;;;;;;5010169;28;20042;-74
2022/01/11 03:13:22;;;;;;;38.15;18.10;;;;;;;;;;4994268;28;20480;-73
2022/01/11 03:15:49;;;;;;;33.63;17.80;;;1.20;99.90;;;;;;4994276;28;20038;-72
2022/01/11 03:18:16;;;;;;;35.03;18.38;;;;;;;;;;4977969;28;20129;-73
2022/01/11 03:20:43;;;;;;;35.53;19.77;;;;;;;;;;4993746;28;20048;-73
2022/01/11 03:23:09;;;;;;;39.17;19.90;;;;;;;;;;4994300;28;20409;-73
2022/01/11 03:25:35;;;;;;;37.72;19.38;;;;;;;;;;4993664;28;20547;-73
2022/01/11 03:28:03;;;;;;;39.25;18.67;;;1.30;99.90;;;;;;4994207;28;20042;-74
2022/01/11 03:30:29;;;;;;;42.05;19.52;;;;;;;;;;4977455;28;20100;-74
2022/01/11 03:32:55;;;;;;;34.88;19.98;;;;;;;;;;4993800;28;20050;-73
2022/01/11 03:35:21;;;;;;;41.17;19.27;;;;;;;;;;4993768;28;20567;-73
2022/01/11 03:37:47;;;;;;;41.10;19.67;;;;;;;;;;4994050;28;20050;-73
2022/01/11 03:40:16;;;;;;;43.42;20.27;;;1.50;99.90;;;;;;4993698;28;20065;-73
2022/01/11 03:42:42;;;;;;;46.47;21.13;;;;;;;;;;4993663;28;20116;-74
2022/01/11 03:45:09;;;;;;;40.20;20.35;;;1.50;99.90;;;;;;4993702;28;20042;-73
2022/01/11 03:47:35;;;;;;;42.22;21.73;;;1.40;99.90;;;;;;4977714;28;20095;-73
2022/01/11 03:50:03;;;;;;;43.13;20.58;;;1.50;99.90;;;;;;4977617;28;20132;-73
2022/01/11 03:52:29;;;;;;;41.33;21.75;;;;;;;;;;4994402;28;20046;-73
2022/01/11 03:57:25;;;;;;;42.53;21.08;;;1.40;99.90;;;;;;4997699;28;20513;-73
2022/01/11 03:59:51;;;;;;;39.10;21.15;;;;;;;;;;4997116;28;20501;-73
2022/01/11 04:02:17;;;;;;;43.53;21.55;;;;;;;;;;4997545;28;20045;-73
2022/01/11 04:04:44;;;;;;;42.42;20.60;;;;;;;;;;4997509;28;20034;-74
2022/01/11 04:07:10;;;;;;;40.67;20.30;;;;;;;;;;4997231;28;20042;-72
2022/01/11 04:09:36;;;;;;;36.10;18.85;;;;;;;;;;4996804;28;20073;-74
2022/01/11 04:12:02;;;;;;;39.97;20.90;;;;;;;;;;4997257;28;20072;-73
2022/01/11 04:14:28;;;;;;;45.35;20.63;;;;;;;;;;4997065;28;20038;-73
2022/01/11 04:16:54;;;;;;;45.45;21.90;;;;;;;;;;4997244;28;20104;-74
2022/01/11 04:19:20;;;;;;;42.95;21.95;;;1.40;99.90;;;;;;4996947;28;20038;-73
2022/01/11 04:21:47;;;;;;;41.53;20.08;;;;;;;;;;4980794;28;20064;-73
2022/01/11 04:24:13;;;;;;;46.63;21.02;;;;;;;;;;4997031;28;20088;-73
2022/01/11 04:26:39;;;;;;;40.47;20.08;;;;;;;;;;4997067;28;20130;-74
2022/01/11 04:29:06;;;;;;;43.90;21.00;;;1.50;99.90;;;;;;4996720;28;20038;-73
2022/01/11 04:31:32;;;;;;;44.60;20.20;;;;;;;;;;4996883;28;20042;-74
2022/01/11 04:33:58;;;;;;;46.53;21.73;;;;;;;;;;4996934;28;20038;-74
2022/01/11 04:36:24;;;;;;;43.47;20.50;;;1.50;99.90;;;;;;4997037;28;20048;-73
2022/01/11 04:38:50;;;;;;;42.80;20.75;;;;;;;;;;4980489;28;20121;-72
2022/01/11 04:41:17;;;;;;;43.47;20.25;;;;;;;;;;4996459;28;20045;-74
2022/01/11 04:43:43;;;;;;;47.47;20.17;;;;;;;;;;4996915;28;20112;-73
2022/01/11 04:46:09;;;;;;;51.17;20.98;;;;;;;;;;4996721;28;20068;-73
2022/01/11 04:48:35;;;;;;;44.85;20.33;;;;;;;;;;4996792;28;20132;-73
2022/01/11 04:51:02;;;;;;;48.80;21.38;;;;;;;;;;4996376;28;20540;-73
2022/01/11 04:53:28;;;;;;;47.20;23.00;;;;;;;;;;4996317;28;20505;-73
2022/01/11 04:55:55;;;;;;;48.30;21.20;;;1.70;99.90;;;;;;4996223;28;20046;-73
2022/01/11 04:58:21;;;;;;;37.45;19.63;;;;;;;;;;4996377;28;20041;-73
2022/01/11 05:00:48;;;;;;;41.40;21.38;;;;;;;;;;4996200;28;20033;-73
2022/01/11 05:03:14;;;;;;;47.17;21.83;;;;;;;;;;4996204;28;20095;-74
2022/01/11 05:05:40;;;;;;;42.10;21.67;;;;;;;;;;4995504;28;20077;-73
2022/01/11 05:08:06;;;;;;;50.55;23.58;;;;;;;;;;4996064;28;20045;-73
2022/01/11 05:10:32;;;;;;;50.92;20.30;;;;;;;;;;4995941;28;20053;-73
2022/01/11 05:12:58;;;;;;;45.70;21.00;;;;;;;;;;4995934;28;20084;-73
2022/01/11 05:15:28;;;;;;;45.17;20.98;;;;;;;;;;4996232;28;20200;-73
2022/01/11 05:17:54;;;;;;;41.38;20.42;;;;;;;;;;4995972;28;20057;-73
2022/01/11 05:20:20;;;;;;;41.25;19.83;;;;;;;;;;4995697;28;20080;-73
2022/01/11 05:22:47;;;;;;;43.17;19.33;;;;;;;;;;4995744;28;20501;-73
2022/01/11 05:25:14;;;;;;;39.65;19.33;;;;;;;;;;4995685;28;20042;-73
2022/01/11 05:27:41;;;;;;;50.42;21.30;;;;;;;;;;4996079;28;20041;-73
2022/01/11 05:30:08;;;;;;;47.65;20.08;;;;;;;;;;4995427;28;20062;-73
2022/01/11 05:32:35;;;;;;;48.67;20.27;;;;;;;;;;4995625;28;20053;-74
2022/01/11 05:35:02;;;;;;;41.08;20.13;;;;;;;;;;4995883;28;20120;-72
2022/01/11 05:37:29;;;;;;;44.00;19.35;;;;;;;;;;4995408;28;20076;-73
2022/01/11 05:39:55;;;;;;;47.47;20.67;;;;;;;;;;4995272;28;20038;-73
2022/01/11 05:42:22;;;;;;;37.58;18.10;;;;;;;;;;4995501;28;20042;-73
2022/01/11 05:44:48;;;;;;;40.65;18.83;;;;;;;;;;4995482;28;20038;-73
2022/01/11 05:47:14;;;;;;;39.70;18.55;;;;;;;;;;4995588;28;20045;-73
2022/01/11 05:49:40;;;;;;;38.65;17.58;;;;;;;;;;4994981;28;20038;-73
2022/01/11 05:52:07;;;;;;;36.67;18.80;;;;;;;;;;4995236;28;20544;-73
2022/01/11 05:54:33;;;;;;;39.58;19.52;;;;;;;;;;4995528;28;20100;-73
2022/01/11 05:56:59;;;;;;;31.95;16.13;;;;;;;;;;4995508;28;20497;-73
2022/01/11 05:59:24;;;;;;;32.70;17.23;;;1.40;99.90;;;;;;4994978;28;20068;-74
2022/01/11 06:01:50;;;;;;;38.38;17.67;;;;;;;;;;4979245;28;20057;-73
2022/01/11 06:04:16;;;;;;;41.75;18.83;;;;;;;;;;4995005;28;20046;-73
2022/01/11 06:06:42;;;;;;;40.63;18.27;;;;;;;;;;4995153;28;20052;-73
2022/01/11 06:09:08;;;;;;;37.70;17.65;;;;;;;;;;4995005;28;20046;-72
2022/01/11 06:11:34;;;;;;;32.85;16.58;;;;;;;;;;4995134;28;20512;-72
2022/01/11 06:14:00;;;;;;;41.95;18.38;;;;;;;;;;4995027;28;20038;-72
2022/01/11 06:16:26;;;;;;;35.30;16.88;;;;;;;;;;4994221;28;20099;-73
2022/01/11 06:18:52;;;;;;;34.50;16.33;;;;;;;;;;4995075;28;20470;-71
2022/01/11 06:21:18;;;;;;;35.72;15.82;;;;;;;;;;4994690;28;20042;-74
2022/01/11 06:23:48;;;;;;;36.17;17.17;;;;;;;;;;4994994;28;20488;-74
2022/01/11 06:26:14;;;;;;;36.00;17.55;;;;;;;;;;4996217;28;20065;-73
2022/01/11 06:28:41;;;;;;;35.92;17.67;;;;;;;;;;4995103;28;20046;-73
2022/01/11 06:31:07;;;;;;;33.58;17.73;;;;;;;;;;4994650;28;20523;-73
2022/01/11 06:33:33;;;;;;;38.08;16.52;;;;;;;;;;4994344;28;20494;-73
2022/01/11 06:35:59;;;;;;;36.13;15.50;;;;;;;;;;4992443;28;20037;-73
2022/01/11 06:38:25;;;;;;;32.40;15.80;;;;;;;;;;4975186;28;20042;-73
2022/01/11 06:40:52;;;;;;;34.45;16.50;;;;;;;;;;4959853;28;20042;-74
2022/01/11 06:43:18;;;;;;;34.17;16.50;;;;;;;;;;4960212;28;20086;-74
2022/01/11 06:45:44;;;;;;;34.75;16.27;;;;;;;;;;4965067;28;20041;-72
2022/01/11 06:48:10;;;;;;;33.40;16.55;;;;;;;;;;4991289;28;20050;-73
2022/01/11 06:50:36;;;;;;;34.00;16.35;;;;;;;;;;4990836;28;20033;-73
2022/01/11 06:53:02;;;;;;;35.40;15.88;;;;;;;;;;4990887;28;20528;-72
2022/01/11 06:55:29;;;;;;;32.20;16.30;;;;;;;;;;4991075;28;20056;-73
2022/01/11 06:57:55;;;;;;;38.22;16.58;;;;;;;;;;4991016;28;20141;-72
2022/01/11 07:00:22;;;;;;;32.20;16.17;;;;;;;;;;4990699;28;20056;-72
2022/01/11 07:02:50;;;;;;;36.03;16.08;;;;;;;;;;4990829;28;20042;-75
2022/01/11 07:05:17;;;;;;;31.83;16.05;;;;;;;;;;4990924;28;20061;-73
2022/01/11 07:07:43;;;;;;;31.20;16.40;;;;;;;;;;4991244;28;20622;-76
2022/01/11 07:10:10;;;;;;;32.30;14.57;;;;;;;;;;4990306;28;20509;-75
2022/01/11 07:12:36;;;;;;;31.95;15.18;;;;;;;;;;4979462;28;20355;-77
2022/01/11 07:15:03;;;;;;;31.40;16.27;;;1.10;99.90;;;;;;5010398;28;20064;-75
2022/01/11 07:17:29;;;;;;;30.25;15.02;;;;;;;;;;4993650;28;20127;-73
2022/01/11 07:19:56;;;;;;;32.53;16.05;;;;;;;;;;4991473;28;20037;-72
2022/01/11 07:22:22;;;;;;;32.90;15.88;;;;;;;;;;4993453;28;20061;-69
2022/01/11 07:24:48;;;;;;;34.55;15.80;;;;;;;;;;4989070;28;20037;-74
2022/01/11 07:27:14;;;;;;;35.13;16.60;;;;;;;;;;5009287;28;20417;-74
2022/01/11 07:29:40;;;;;;;29.60;15.05;;;;;;;;;;4996557;28;20068;-75
2022/01/11 07:32:07;;;;;;;34.10;16.13;;;;;;;;;;4995438;28;20041;-75
2022/01/11 07:34:33;;;;;;;31.23;16.85;;;;;;;;;;4996550;28;20053;-73
2022/01/11 07:36:59;;;;;;;31.55;16.73;;;;;;;;;;4994329;28;20046;-72
2022/01/11 07:39:25;;;;;;;32.47;15.10;;;;;;;;;;4993760;28;20053;-73
2022/01/11 07:41:51;;;;;;;33.92;17.15;;;;;;;;;;4993529;28;20572;-73
2022/01/11 07:44:17;;;;;;;29.10;15.48;;;;;;;;;;4994513;28;20124;-73
2022/01/11 07:46:44;;;;;;;31.20;15.88;;;;;;;;;;4994766;28;20515;-74
2022/01/11 07:49:11;;;;;;;35.20;17.10;;;;;;;;;;4994397;28;20038;-73
2022/01/11 07:51:38;;;;;;;32.42;15.75;;;;;;;;;;4994364;28;20505;-73
2022/01/11 07:54:06;;;;;;;31.70;15.35;;;;;;;;;;4994433;28;20330;-74
2022/01/11 07:56:32;;;;;;;32.20;15.13;;;;;;;;;;4984742;28;20512;-75
2022/01/11 07:58:58;;;;;;;30.33;16.10;;;;;;;;;;4960759;28;20042;-74
2022/01/11 08:01:23;;;;;;;33.22;15.77;;;1.00;99.90;;;;;;4978020;28;20490;-74
2022/01/11 08:03:50;;;;;;;31.50;15.70;;;;;;;;;;4962261;28;20057;-76
2022/01/11 08:06:16;;;;;;;31.35;16.27;;;;;;;;;;4961993;28;20046;-74
2022/01/11 08:08:42;;;;;;;31.65;16.35;;;;;;;;;;4961867;28;20038;-74
2022/01/11 08:11:08;;;;;;;30.02;17.35;;;;;;;;;;4961693;28;20053;-74
2022/01/11 08:13:34;;;;;;;32.00;15.82;;;1.00;99.90;;;;;;4961591;28;20050;-74
2022/01/11 08:16:00;;;;;;;29.35;15.13;;;;;;;;;;4961606;28;20048;-74
2022/01/11 08:18:26;;;;;;;32.28;15.80;;;;;;;;;;4961486;28;20414;-74
2022/01/11 08:20:52;;;;;;;30.10;15.88;;;;;;;;;;4961665;28;20038;-74
2022/01/11 08:23:18;;;;;;;31.20;16.55;;;;;;;;;;4961946;28;20042;-75
2022/01/11 08:25:44;;;;;;;28.70;15.85;;;;;;;;;;4971620;28;20042;-74
2022/01/11 08:28:10;;;;;;;31.88;16.15;;;;;;;;;;4981939;28;20138;-74
2022/01/11 08:30:36;;;;;;;32.47;14.98;;;;;;;;;;4983195;28;20560;-74
2022/01/11 08:33:04;;;;;;;34.08;17.77;;;1.00;99.90;;;;;;5016685;28;20041;-76
2022/01/11 08:35:31;;;;;;;31.42;15.88;;;;;;;;;;5000709;28;20037;-75
2022/01/11 08:37:57;;;;;;;32.35;16.75;;;0.90;99.90;;;;;;5016825;28;20123;-75
2022/01/11 08:40:24;;;;;;;32.10;16.05;;;;;;;;;;4988030;28;20034;-75
2022/01/11 08:42:50;;;;;;;31.15;16.17;;;;;;;;;;4991709;28;20150;-75
2022/01/11 08:45:16;;;;;;;31.00;17.17;;;;;;;;;;4996717;28;20125;-75
2022/01/11 08:47:42;;;;;;;31.42;16.35;;;1.10;99.90;;;;;;4980312;28;20129;-75
2022/01/11 08:50:11;;;;;;;37.53;16.88;;;;;;;;;;4980056;28;20129;-75
2022/01/11 08:52:37;;;;;;;34.08;17.73;;;;;;;;;;4980668;28;20053;-75
2022/01/11 08:55:04;;;;;;;34.00;16.58;;;;;;;;;;4996601;28;20329;-75
2022/01/11 08:57:31;;;;;;;33.53;17.10;;;;;;;;;;4980187;28;20045;-75
2022/01/11 08:59:57;;;;;;;33.85;16.73;;;;;;;;;;4980227;28;20532;-75
2022/01/11 09:02:23;;;;;;;38.20;19.52;;;;;;;;;;4980160;28;20037;-75
2022/01/11 09:04:52;;;;;;;32.90;17.75;;;;;;;;;;4980277;28;20041;-75
2022/01/11 09:07:17;;;;;;;33.35;17.52;;;1.20;99.90;;;;;;4979991;28;20049;-74
2022/01/11 09:09:43;;;;;;;38.25;18.33;;;;;;;;;;4980370;28;20445;-74
2022/01/11 09:12:12;;;;;;;33.45;16.42;;;;;;;;;;4980320;28;20042;-75
2022/01/11 09:14:39;;;;;;;40.45;18.70;;;;;;;;;;4979779;28;20053;-75
2022/01/11 09:17:06;;;;;;;34.40;17.23;;;;;;;;;;4980082;28;20128;-75
2022/01/11 09:19:32;;;;;;;32.92;17.58;;;1.10;99.90;;;;;;4983987;28;20079;-74
2022/01/11 09:21:59;;;;;;;37.58;18.48;;;1.20;99.90;;;;;;4999535;28;20527;-75
2022/01/11 09:24:29;;;;;;;33.95;18.00;;;;;;;;;;4998964;28;20045;-74
2022/01/11 09:26:56;;;;;;;33.30;17.15;;;;;;;;;;5015775;28;20405;-75
2022/01/11 09:29:22;;;;;;;39.90;18.85;;;;;;;;;;5012645;28;20096;-75
2022/01/11 09:31:48;;;;;;;38.47;19.65;;;;;;;;;;4995905;28;20409;-75
2022/01/11 09:34:14;;;;;;;38.65;17.70;;;;;;;;;;4995709;28;20517;-75
2022/01/11 09:36:40;;;;;;;38.05;19.38;;;;;;;;;;4995716;28;20119;-75
2022/01/11 09:39:06;;;;;;;38.15;18.65;;;;;;;;;;4988396;28;20034;-75
2022/01/11 09:41:34;;;;;;;42.58;20.73;;;1.40;99.90;;;;;;4965055;28;20038;-74
2022/01/11 09:44:00;;;;;;;39.13;18.60;;;;;;;;;;4960029;28;20069;-75
2022/01/11 09:46:28;;;;;;;40.53;19.02;;;1.30;99.90;;;;;;4976169;28;20080;-75
2022/01/11 09:48:54;;;;;;;42.50;21.05;;;;;;;;;;4979156;28;20038;-74
2022/01/11 09:51:20;;;;;;;42.05;21.02;;;;;;;;;;4995075;28;20089;-75
2022/01/11 09:53:47;;;;;;;42.25;20.30;;;1.40;99.90;;;;;;4986110;28;20034;-75
2022/01/11 09:56:17;;;;;;;45.42;19.60;;;;;;;;;;4959674;28;20524;-75
2022/01/11 09:58:44;;;;;;;44.22;21.23;;;;;;;;;;4959842;28;20038;-74
2022/01/11 10:01:10;;;;;;;45.95;21.65;;;;;;;;;;4961466;28;20038;-75
2022/01/11 10:03:56;;;;;;;40.08;20.30;;;;;;;;;;4982773;28;20105;-75
2022/01/11 10:06:22;;;;;;;43.53;20.25;;;1.50;99.90;;;;;;5013026;28;20038;-74
2022/01/11 10:08:49;;;;;;;43.00;21.40;;;;;;;;;;4979002;28;20052;-76
2022/01/11 10:11:15;;;;;;;41.95;20.77;;;;;;;;;;4991631;28;20049;-75
2022/01/11 10:13:41;;;;;;;39.25;20.65;;;;;;;;;;4967717;28;20129;-75
2022/01/11 10:16:18;;;;;;;39.20;19.27;;;;;;;;;;4962115;28;20046;-75
2022/01/11 10:18:44;;;;;;;39.75;19.30;;;;;;;;;;4959420;28;20042;-75
2022/01/11 10:21:33;;;;;;;38.92;20.02;;;1.60;99.90;;;;;;4997324;28;20129;-75
2022/01/11 10:23:59;;;;;;;40.72;20.35;;;;;;;;;;4978548;28;20057;-75
2022/01/11 10:26:41;;;;;;;41.00;20.50;;;;;;;;;;4994059;28;20041;-75
2022/01/11 10:29:27;;;;;;;42.28;19.95;;;2.20;99.90;;;;;;4977682;28;20065;-74
2022/01/11 10:31:53;;;;;;;38.05;19.58;;;;;;;;;;4978653;28;20050;-75
2022/01/11 10:34:33;;;;;;;42.42;20.33;;;2.20;99.90;;;;;;4994633;28;20083;-75
2022/01/11 10:37:01;;;;;;;36.83;19.58;;;2.50;99.90;;;;;;4978500;28;20042;-75
2022/01/11 10:39:34;;;;;;;39.40;19.30;;;;;;;;;;4977980;28;20165;-76
2022/01/11 10:42:01;;;;;;;36.15;18.75;;;;;;;;;;4978362;28;20041;-76
2022/01/11 10:44:50;;;;;;;39.13;18.98;;;2.60;99.90;;;;;;4978137;28;20045;-76
2022/01/11 10:47:17;;;;;;;34.70;18.58;;;;;;;;;;4978301;28;20160;-76
2022/01/11 10:49:43;;;;;;;36.65;18.08;;;;;;;;;;4977902;28;20129;-76
2022/01/11 10:52:23;;;;;;;34.53;18.92;;;;;;;;;;4978458;28;20132;-76
2022/01/11 10:54:51;;;;;;;39.03;18.40;;;2.70;99.90;;;;;;4978302;28;20130;-76
2022/01/11 10:57:33;;;;;;;36.63;18.88;;;;;;;;;;4977591;28;20420;-75
2022/01/11 11:00:06;;;;;;;33.35;16.58;;;;;;;;;;4991215;28;20113;-75
2022/01/11 11:02:32;;;;;;;39.45;17.90;;;;;;;;;;4978078;28;20046;-76
2022/01/11 11:04:58;;;;;;;36.13;19.02;;;;;;;;;;4978449;28;20076;-76
2022/01/11 11:07:26;;;;;;;33.15;17.23;;;;;;;;;;4978331;28;20034;-76
2022/01/11 11:09:52;;;;;;;37.90;19.70;;;;;;;;;;4977935;28;20219;-74
2022/01/11 11:12:20;;;;;;;37.13;17.73;;;;;;;;;;4993920;28;20037;-76
2022/01/11 11:14:57;;;;;;;36.08;18.38;;;2.90;99.90;;;;;;4994195;28;20495;-76
2022/01/11 11:17:31;;;;;;;33.65;17.15;;;3.00;99.90;;;;;;4978083;28;20042;-76
2022/01/11 11:20:02;;;;;;;33.85;17.52;;;;;;;;;;4985633;28;20049;-76
2022/01/11 11:22:28;;;;;;;37.30;18.27;;;3.10;99.90;;;;;;5014013;28;20048;-76
2022/01/11 11:24:56;;;;;;;43.08;19.35;;;;;;;;;;4997446;28;20493;-76
2022/01/11 11:27:23;;;;;;;29.92;16.83;;;2.80;99.90;;;;;;5013785;28;20037;-76
2022/01/11 11:29:50;;;;;;;39.72;18.52;;;2.80;99.90;;;;;;4997158;28;20038;-76
2022/01/11 11:32:18;;;;;;;36.70;18.48;;;3.00;99.90;;;;;;4997419;28;20044;-76
2022/01/11 11:34:45;;;;;;;36.63;18.08;;;2.90;99.90;;;;;;4997262;28;20042;-76
2022/01/11 11:37:14;;;;;;;35.22;17.88;;;;;;;;;;4997404;28;20077;-76
2022/01/11 11:39:41;;;;;;;37.60;18.77;;;3.00;99.90;;;;;;5013605;28;20128;-76
2022/01/11 11:42:10;;;;;;;31.92;16.77;;;;;;;;;;4997108;28;20045;-76
2022/01/11 11:44:38;;;;;;;36.10;18.33;;;;;;;;;;5010890;28;20054;-76
2022/01/11 11:47:07;;;;;;;34.92;17.45;;;2.90;99.90;;;;;;4976972;28;20044;-76
2022/01/11 11:49:45;;;;;;;36.67;16.42;;;;;;;;;;4977179;28;20038;-76
2022/01/11 11:52:20;;;;;;;31.02;17.27;;;;;;;;;;4977387;28;20089;-75
2022/01/11 11:54:57;;;;;;;36.17;17.70;;;;;;;;;;4977282;28;20509;-76
2022/01/11 11:57:25;;;;;;;33.70;17.30;;;3.00;99.90;;;;;;4977428;28;20054;-76
2022/01/11 12:00:01;;;;;;;38.88;18.33;;;3.30;99.90;;;;;;4977057;28;20156;-76
2022/01/11 12:02:31;;;;;;;34.85;15.48;;;;;;;;;;4977293;28;20104;-76
2022/01/11 12:04:57;;;;;;;29.90;16.23;;;;;;;;;;4977239;28;20041;-75
2022/01/11 12:07:27;;;;;;;32.97;16.70;;;;;;;;;;4977416;28;20042;-76
2022/01/11 12:09:53;;;;;;;30.95;16.42;;;;;;;;;;4977661;28;20489;-76
2022/01/11 12:12:38;;;;;;;32.35;16.60;;;;;;;;;;4976537;28;20150;-77
2022/01/11 12:15:22;;;;;;;29.42;15.48;;;;;;;;;;4983384;28;20030;-76
2022/01/11 12:17:49;;;;;;;31.25;15.45;;;;;;;;;;4993812;28;20372;-77
2022/01/11 12:20:33;;;;;;;31.17;15.18;;;;;;;;;;4996379;28;20037;-77
2022/01/11 12:22:59;;;;;;;32.30;17.08;;;;;;;;;;5000125;28;20084;-76
2022/01/11 12:25:30;;;;;;;37.00;16.15;;;3.40;99.90;;;;;;5002989;28;20465;-76
2022/01/11 12:28:04;;;;;;;35.35;16.27;;;;;;;;;;4993528;28;20046;-77
2022/01/11 12:30:32;;;;;;;32.90;16.90;;;3.50;99.90;;;;;;4993670;28;20100;-77
2022/01/11 12:33:16;;;;;;;36.15;17.25;;;;;;;;;;4993851;28;20046;-77
2022/01/11 12:36:02;;;;;;;31.13;15.32;;;3.40;99.90;;;;;;4982144;28;20046;-77
2022/01/11 12:38:33;;;;;;;30.90;15.15;;;;;;;;;;4978582;28;20038;-77
2022/01/11 12:40:59;;;;;;;27.58;14.75;;;;;;;;;;4980371;28;20045;-78
2022/01/11 12:43:38;;;;;;;30.45;14.90;;;;;;;;;;4980359;28;20046;-77
2022/01/11 12:46:11;;;;;;;30.13;16.30;;;;;;;;;;4980050;28;20206;-77
2022/01/11 12:48:47;;;;;;;30.40;16.05;;;3.50;99.90;;;;;;4980763;28;20071;-76
2022/01/11 12:51:45;;;;;;;32.45;16.35;;;3.60;99.90;;;;;;4980084;28;20049;-76
2022/01/11 12:54:31;;;;;;;30.23;15.13;;;3.60;99.90;;;;;;4980412;28;20080;-77
2022/01/11 12:56:59;;;;;;;30.20;17.05;;;;;;;;;;4980061;28;20095;-75
2022/01/11 12:59:31;;;;;;;27.25;15.00;;;3.50;99.90;;;;;;4979759;28;20042;-75
2022/01/11 13:01:58;;;;;;;27.75;14.57;;;;;;;;;;4980241;28;20046;-76
2022/01/11 13:04:38;;;;;;;30.02;15.05;;;;;;;;;;4979955;28;20042;-76
2022/01/11 13:07:12;;;;;;;28.90;13.85;;;;;;;;;;4980162;28;20042;-76
2022/01/11 13:09:38;;;;;;;26.08;14.43;;;;;;;;;;4979314;28;20125;-76
2022/01/11 13:12:04;;;;;;;30.55;14.70;;;3.70;99.90;;;;;;4979933;28;20041;-76
2022/01/11 13:14:37;;;;;;;30.90;14.25;;;;;;;;;;4979780;28;20390;-76
2022/01/11 13:17:03;;;;;;;26.63;14.25;;;;;;;;;;4980030;28;20045;-76
2022/01/11 13:19:31;;;;;;;30.50;15.32;;;;;;;;;;4983841;28;20038;-76
2022/01/11 13:22:08;;;;;;;26.23;14.15;;;;;;;;;;5015483;28;20049;-76
2022/01/11 13:24:37;;;;;;;27.38;14.02;;;;;;;;;;5015490;28;20470;-75
2022/01/11 13:27:08;;;;;;;24.15;12.02;;;3.80;99.90;;;;;;5015080;28;20489;-76
2022/01/11 13:29:34;;;;;;;26.50;13.65;;;;;;;;;;4980613;28;20406;-75
2022/01/11 13:32:00;;;;;;;26.02;13.57;;;;;;;;;;4979915;28;20042;-75
2022/01/11 13:34:26;;;;;;;24.13;12.57;;;3.50;99.90;;;;;;4979667;28;20188;-75
2022/01/11 13:36:55;;;;;;;26.33;12.80;;;3.60;99.90;;;;;;4979246;28;20508;-76
2022/01/11 13:39:34;;;;;;;23.42;12.70;;;3.80;99.90;;;;;;4979131;28;20442;-74
2022/01/11 13:42:01;;;;;;;25.15;12.57;;;;;;;;;;4979096;28;20049;-76
2022/01/11 13:44:30;;;;;;;28.15;13.20;;;;;;;;;;4979303;28;20057;-75
2022/01/11 13:47:00;;;;;;;27.08;12.25;;;3.80;99.90;;;;;;4979648;28;20045;-75
2022/01/11 13:49:26;;;;;;;27.85;13.13;;;;;;;;;;4980637;28;20382;-76
2022/01/11 13:51:57;;;;;;;28.15;12.50;;;3.90;99.90;;;;;;4981794;28;20038;-75
2022/01/11 13:54:33;;;;;;;25.48;14.43;;;4.00;99.90;;;;;;4981335;28;20065;-76
2022/01/11 13:57:01;;;;;;;24.00;12.07;;;3.90;99.90;;;;;;4978993;28;20038;-75
2022/01/11 13:59:29;;;;;;;25.92;13.15;;;;;;;;;;4978764;28;20045;-75